Time;durP1;ratioP1;P1;durP2;ratioP2;P2;SDS_P1;SDS_P2;PMS_P1;PMS_P2;Temp;Humidity;BMP_temperature;BMP_pressure;BME280_temperature;BME280_humidity;BME280_pressure;Samples;Min_cycle;Max_cycle;Signal;HPM_P1;HPM_P2
2022/11/24 00:00:17;;;;;;;20.17;4.78;;;;;;;7.15;100.00;100209.94;5012138;28;20405;-64
2022/11/24 00:02:43;;;;;;;19.30;4.32;;;;;;;7.15;100.00;100204.47;5024237;28;20025;-64
2022/11/24 00:05:08;;;;;;;19.75;4.70;;;;;;;7.14;100.00;100219.16;5026251;28;20051;-64
2022/11/24 00:07:33;;;;;;;22.00;5.10;;;;;;;7.18;100.00;100212.19;5016404;28;20040;-64
2022/11/24 00:09:59;;;;;;;23.00;4.43;;;;;;;7.15;100.00;100218.13;5015779;28;20018;-65
2022/11/24 00:12:24;;;;;;;18.08;5.38;;;;;;;7.12;100.00;100210.38;5014692;28;20029;-64
2022/11/24 00:14:49;;;;;;;20.45;4.70;;;;;;;7.11;100.00;100219.63;5026935;28;20136;-64
2022/11/24 00:17:14;;;;;;;18.35;4.43;;;;;;;7.11;100.00;100225.09;5026771;28;20468;-64
2022/11/24 00:19:40;;;;;;;24.65;4.93;;;;;;;7.14;100.00;100224.63;5025597;28;20037;-65
2022/11/24 00:22:06;;;;;;;18.42;4.68;;;;;;;7.14;100.00;100235.56;5006483;28;20038;-64
2022/11/24 00:24:31;;;;;;;18.77;4.20;;;;;;;7.12;100.00;100231.38;5008463;28;20018;-65
2022/11/24 00:26:56;;;;;;;14.13;4.28;;;;;;;7.12;100.00;100234.94;5007824;28;20034;-65
2022/11/24 00:29:22;;;;;;;16.45;4.30;;;;;;;7.12;100.00;100240.41;5011795;28;20037;-65
2022/11/24 00:31:47;;;;;;;15.00;4.03;;;;;;;7.09;100.00;100242.75;5007950;28;20048;-64
2022/11/24 00:34:13;;;;;;;18.63;4.07;;;;;;;7.12;100.00;100236.84;5009804;28;20418;-64
2022/11/24 00:36:39;;;;;;;15.98;3.65;;;;;;;7.18;100.00;100236.78;5028599;28;20038;-64
2022/11/24 00:39:07;;;;;;;19.85;4.53;;;;;;;7.31;100.00;100241.31;5027598;28;20034;-65
2022/11/24 00:41:33;;;;;;;16.10;4.13;;;;;;;7.31;100.00;100235.00;5014256;28;20213;-64
2022/11/24 00:43:59;;;;;;;19.95;4.55;;;;;;;7.33;100.00;100241.06;5009454;28;20801;-65
2022/11/24 00:46:25;;;;;;;14.95;4.10;;;;;;;7.34;100.00;100240.84;5027139;28;20029;-64
2022/11/24 00:48:51;;;;;;;19.05;4.03;;;;;;;7.27;100.00;100246.38;5024172;28;20121;-65
2022/11/24 00:51:18;;;;;;;20.52;5.07;;;;;;;7.20;100.00;100245.59;5026814;28;20133;-64
2022/11/24 00:53:43;;;;;;;15.65;4.03;;;;;;;7.17;100.00;100251.50;5010689;28;20045;-65
2022/11/24 00:56:09;;;;;;;15.27;3.78;;;;;;;7.15;100.00;100239.97;5010185;28;20572;-64
2022/11/24 00:58:35;;;;;;;17.75;4.43;;;;;;;7.17;100.00;100235.13;5007201;28;20654;-64
2022/11/24 01:01:09;;;;;;;17.60;4.30;;;;;;;7.19;100.00;100246.63;5013857;28;20030;-65
2022/11/24 01:03:35;;;;;;;20.63;5.07;;;;;;;7.14;100.00;100249.22;5007312;28;20026;-65
2022/11/24 01:06:05;;;;;;;16.70;4.10;;;;;;;7.16;100.00;100254.47;5024131;28;20546;-65
2022/11/24 01:08:31;;;;;;;18.17;3.95;;;;;;;7.12;100.00;100259.53;5027192;28;20614;-64
2022/11/24 01:11:09;;;;;;;14.75;3.72;;;;;;;7.13;100.00;100271.28;5005280;28;20030;-64
2022/11/24 01:13:34;;;;;;;17.02;3.75;;;;;;;7.11;100.00;100268.78;5006676;28;20592;-64
2022/11/24 01:16:00;;;;;;;17.30;3.92;;;;;;;7.14;100.00;100270.22;5016883;28;20025;-65
2022/11/24 01:18:25;;;;;;;18.45;3.90;;;;;;;7.11;100.00;100285.16;5003042;28;20331;-64
2022/11/24 01:20:50;;;;;;;15.85;3.88;;;;;;;7.08;100.00;100280.13;5004953;28;20057;-65
2022/11/24 01:23:16;;;;;;;18.90;4.75;;;;;;;7.05;100.00;100275.13;5013958;28;20048;-64
2022/11/24 01:25:41;;;;;;;20.25;4.75;;;;;;;7.06;100.00;100282.28;5027558;28;20053;-64
2022/11/24 01:28:06;;;;;;;15.05;4.18;;;;;;;7.06;100.00;100273.25;5025248;28;20064;-64
2022/11/24 01:30:32;;;;;;;14.45;4.05;;;;;;;7.08;100.00;100273.84;5025370;28;20058;-64
2022/11/24 01:32:57;;;;;;;17.88;4.13;;;;;;;7.08;100.00;100269.22;5006527;28;20069;-64
2022/11/24 01:35:22;;;;;;;16.80;4.18;;;;;;;7.15;100.00;100267.28;5007636;28;20101;-64
2022/11/24 01:37:48;;;;;;;16.67;3.72;;;;;;;7.12;100.00;100284.09;5010091;28;20079;-65
2022/11/24 01:40:13;;;;;;;16.60;3.95;;;;;;;7.12;100.00;100292.28;5003758;28;20034;-65
2022/11/24 01:42:45;;;;;;;18.52;3.72;;;;;;;7.08;100.00;100287.50;5004744;28;20080;-65
2022/11/24 01:45:29;;;;;;;13.05;3.53;;;;;;;7.07;100.00;100286.66;5007687;28;20079;-64
2022/11/24 01:47:55;;;;;;;19.83;3.50;;;;;;;7.01;100.00;100298.47;4997423;28;20034;-64
2022/11/24 01:50:21;;;;;;;17.27;4.90;;;;;;;7.02;100.00;100291.94;5020318;28;20025;-65
2022/11/24 01:52:51;;;;;;;18.02;3.83;;;;;;;7.07;100.00;100304.94;5019801;28;20030;-65
2022/11/24 01:55:21;;;;;;;17.05;4.30;;;;;;;6.98;100.00;100313.38;5020560;28;20022;-64
2022/11/24 01:57:52;;;;;;;19.48;4.57;;;;;;;7.00;100.00;100310.47;5010689;28;20022;-64
2022/11/24 02:00:18;;;;;;;13.98;3.65;;;;;;;7.03;100.00;100315.47;5011483;28;20084;-65
2022/11/24 02:02:44;;;;;;;18.60;3.90;;;;;;;7.04;100.00;100308.94;5019110;28;20469;-64
2022/11/24 02:05:36;;;;;;;14.27;3.65;;;;;;;7.12;100.00;100316.88;5010966;28;20057;-65
2022/11/24 02:08:03;;;;;;;21.00;4.63;;;;;;;7.13;100.00;100321.28;4990123;28;20109;-65
2022/11/24 02:10:28;;;;;;;16.25;3.97;;;;;;;7.11;100.00;100328.84;5057960;22;20144;-65
2022/11/24 02:12:56;;;;;;;22.05;3.92;;;;;;;7.13;100.00;100320.44;5016354;28;20030;-65
2022/11/24 02:15:22;;;;;;;18.13;5.05;;;;;;;7.14;100.00;100328.41;5008434;28;20033;-65
2022/11/24 02:17:47;;;;;;;16.23;4.57;;;;;;;7.13;100.00;100324.00;5008151;28;20084;-65
2022/11/24 02:20:13;;;;;;;16.80;3.70;;;;;;;7.11;100.00;100326.13;5009051;28;20069;-65
2022/11/24 02:23:12;;;;;;;19.42;4.57;;;;;;;7.07;100.00;100324.91;5008510;28;20045;-65
2022/11/24 02:26:09;;;;;;;17.45;4.10;;;;;;;7.06;100.00;100330.59;5009777;28;20040;-65
2022/11/24 02:28:34;;;;;;;17.10;3.92;;;;;;;7.02;100.00;100336.47;5014572;28;20034;-64
2022/11/24 02:31:00;;;;;;;16.58;3.63;;;;;;;6.98;100.00;100340.69;5009084;28;20087;-65
2022/11/24 02:33:26;;;;;;;16.80;4.03;;;;;;;6.94;100.00;100339.44;5009702;28;20084;-65
2022/11/24 02:35:52;;;;;;;17.77;4.03;;;;;;;6.90;100.00;100340.97;5008428;28;20026;-65
2022/11/24 02:38:18;;;;;;;20.00;3.97;;;;;;;6.87;100.00;100343.28;5009592;28;20595;-65
2022/11/24 02:40:46;;;;;;;17.65;3.90;;;;;;;6.81;100.00;100355.09;5010131;28;20033;-65
2022/11/24 02:43:19;;;;;;;18.95;4.15;;;;;;;6.79;100.00;100338.06;5008952;28;20030;-64
2022/11/24 02:45:45;;;;;;;20.48;3.88;;;;;;;6.79;100.00;100338.06;5009364;28;20396;-65
2022/11/24 02:48:13;;;;;;;17.08;3.80;;;;;;;6.79;100.00;100346.25;5008998;28;20034;-64
2022/11/24 02:50:38;;;;;;;21.88;4.45;;;;;;;6.78;100.00;100337.25;5009200;28;20044;-65
2022/11/24 02:53:03;;;;;;;19.17;3.80;;;;;;;6.83;100.00;100336.59;5008303;28;20472;-65
2022/11/24 02:55:28;;;;;;;16.63;3.90;;;;;;;6.89;100.00;100346.63;5008716;28;20095;-65
2022/11/24 02:57:54;;;;;;;18.40;4.60;;;;;;;6.91;100.00;100339.06;5007862;28;20022;-65
2022/11/24 03:00:19;;;;;;;19.67;4.50;;;;;;;6.92;100.00;100346.19;5009705;28;20076;-64
2022/11/24 03:02:45;;;;;;;16.73;4.28;;;;;;;6.96;100.00;100350.19;5008328;28;20121;-65
2022/11/24 03:05:11;;;;;;;18.70;4.05;;;;;;;7.02;100.00;100347.41;5007467;28;20065;-64
2022/11/24 03:07:36;;;;;;;18.58;3.83;;;;;;;7.06;100.00;100347.81;5008461;28;20033;-64
2022/11/24 03:10:02;;;;;;;17.13;4.15;;;;;;;7.07;100.00;100359.56;5007154;28;20045;-65
2022/11/24 03:12:28;;;;;;;20.20;4.55;;;;;;;7.08;100.00;100350.31;5008710;28;20034;-65
2022/11/24 03:14:53;;;;;;;21.35;4.88;;;;;;;7.13;100.00;100359.50;5006809;28;20029;-64
2022/11/24 03:17:18;;;;;;;22.65;4.53;;;;;;;7.12;100.00;100360.56;5015275;28;20029;-65
2022/11/24 03:19:44;;;;;;;17.95;4.63;;;;;;;7.14;100.00;100355.72;5008648;28;20038;-64
2022/11/24 03:22:12;;;;;;;20.58;4.70;;;;;;;7.15;100.00;100362.88;5024150;28;20038;-64
2022/11/24 03:24:37;;;;;;;17.23;4.82;;;;;;;7.08;100.00;100362.06;5009527;28;20052;-65
2022/11/24 03:27:03;;;;;;;18.50;5.28;;;;;;;7.12;100.00;100362.47;5007145;28;20157;-64
2022/11/24 03:29:28;;;;;;;17.27;4.88;;;;;;;7.13;100.00;100369.59;5007569;28;20184;-64
2022/11/24 03:31:54;;;;;;;21.02;4.93;;;;;;;7.16;100.00;100364.53;5007472;28;20693;-64
2022/11/24 03:34:19;;;;;;;23.13;4.70;;;;;;;7.21;100.00;100364.72;5008377;28;20532;-64
2022/11/24 03:36:44;;;;;;;20.42;5.00;;;;;;;7.26;100.00;100364.06;5008193;28;20165;-64
2022/11/24 03:39:10;;;;;;;20.27;4.97;;;;;;;7.28;100.00;100364.66;5007813;28;20079;-65
2022/11/24 03:41:35;;;;;;;18.60;4.38;;;;;;;7.33;100.00;100367.56;5008914;28;20034;-65
2022/11/24 03:44:01;;;;;;;16.50;5.07;;;;;;;7.35;100.00;100370.94;5007566;28;20033;-64
2022/11/24 03:46:26;;;;;;;24.00;4.40;;;;;;;7.42;100.00;100365.41;5007885;28;20041;-64
2022/11/24 03:48:51;;;;;;;19.38;4.82;;;;;;;7.43;100.00;100364.34;5006884;28;20029;-64
2022/11/24 03:51:16;;;;;;;20.42;4.63;;;;;;;7.43;100.00;100367.91;5007817;28;20042;-64
2022/11/24 03:53:42;;;;;;;22.40;5.05;;;;;;;7.46;100.00;100366.63;5007817;28;20041;-65
2022/11/24 03:56:07;;;;;;;18.23;4.85;;;;;;;7.50;100.00;100367.84;5008027;28;20030;-64
2022/11/24 03:58:33;;;;;;;18.05;4.45;;;;;;;7.52;100.00;100368.47;5007512;28;20380;-65
2022/11/24 04:00:58;;;;;;;21.50;5.20;;;;;;;7.57;100.00;100376.84;5007212;28;20096;-65
2022/11/24 04:03:24;;;;;;;17.60;4.38;;;;;;;7.58;100.00;100377.69;5007641;28;20084;-65
2022/11/24 04:05:49;;;;;;;17.25;4.55;;;;;;;7.59;100.00;100377.44;5008391;28;20038;-65
2022/11/24 04:08:15;;;;;;;17.35;4.35;;;;;;;7.62;100.00;100374.28;5007166;28;20117;-64
2022/11/24 04:10:41;;;;;;;17.38;4.68;;;;;;;7.62;100.00;100384.38;5007049;28;20050;-65
2022/11/24 04:13:13;;;;;;;16.10;4.18;;;;;;;7.62;100.00;100379.75;5002016;28;20080;-64
2022/11/24 04:15:39;;;;;;;22.63;5.03;;;;;;;7.58;100.00;100386.72;5005150;28;20030;-65
2022/11/24 04:18:05;;;;;;;16.55;4.18;;;;;;;7.58;100.00;100378.50;5006777;28;20113;-64
2022/11/24 04:20:32;;;;;;;21.17;4.72;;;;;;;7.60;100.00;100381.84;5007147;28;20052;-65
2022/11/24 04:22:57;;;;;;;18.15;5.00;;;;;;;7.62;100.00;100387.94;5007200;28;20030;-65
2022/11/24 04:25:23;;;;;;;22.55;5.70;;;;;;;7.63;100.00;100392.34;5006517;28;20034;-65
2022/11/24 04:27:53;;;;;;;22.85;5.05;;;;;;;7.64;100.00;100404.94;5006611;28;20388;-65
2022/11/24 04:30:19;;;;;;;18.55;4.03;;;;;;;7.66;100.00;100407.47;5007868;28;20034;-65
2022/11/24 04:32:45;;;;;;;14.52;3.85;;;;;;;7.70;100.00;100425.91;5007222;28;20034;-65
2022/11/24 04:35:11;;;;;;;12.73;3.00;;;;;;;7.70;100.00;100428.66;5007025;28;20125;-65
2022/11/24 04:37:36;;;;;;;8.90;2.38;;;;;;;7.69;100.00;100440.66;5006417;28;20060;-65
2022/11/24 04:40:02;;;;;;;9.68;2.13;;;;;;;7.57;100.00;100439.69;5006532;28;20091;-65
2022/11/24 04:42:27;;;;;;;10.85;2.35;;;;;;;7.38;100.00;100432.47;5007031;28;20141;-65
2022/11/24 04:44:52;;;;;;;9.73;2.35;;;;;;;7.28;100.00;100444.72;5007350;28;20184;-65
2022/11/24 04:47:23;;;;;;;7.82;2.13;;;;;;;7.18;100.00;100438.03;5007128;28;20033;-65
2022/11/24 04:49:49;;;;;;;7.03;2.15;;;;;;;7.13;100.00;100438.69;5006416;28;20448;-65
2022/11/24 04:52:18;;;;;;;7.13;2.00;;;;;;;7.06;100.00;100448.00;5006286;28;20084;-65
2022/11/24 04:54:44;;;;;;;7.95;2.40;;;;;;;7.02;100.00;100451.16;5006229;28;20377;-65
2022/11/24 04:57:22;;;;;;;8.13;2.60;;;;;;;7.00;100.00;100452.44;5005998;28;20036;-65
2022/11/24 04:59:48;;;;;;;7.57;2.65;;;;;;;6.94;100.00;100448.66;5006406;28;20026;-65
2022/11/24 05:02:13;;;;;;;9.52;2.35;;;;;;;6.94;100.00;100448.66;5006572;28;20029;-64
2022/11/24 05:04:39;;;;;;;7.63;2.88;;;;;;;6.92;100.00;100449.94;5007587;28;20477;-65
2022/11/24 05:07:05;;;;;;;10.95;2.65;;;;;;;6.90;100.00;100450.16;5005802;28;20033;-65
2022/11/24 05:09:30;;;;;;;11.48;2.78;;;;;;;6.89;100.00;100453.91;5006410;28;20045;-65
2022/11/24 05:11:55;;;;;;;9.85;3.30;;;;;;;6.91;100.00;100456.47;4987689;28;20047;-65
2022/11/24 05:14:21;;;;;;;10.10;2.78;;;;;;;6.90;100.00;100458.34;4986153;28;20048;-65
2022/11/24 05:16:46;;;;;;;11.68;3.10;;;;;;;6.88;100.00;100465.06;4986818;28;20114;-65
2022/11/24 05:19:12;;;;;;;10.35;2.53;;;;;;;6.90;100.00;100468.44;4985423;28;20046;-65
2022/11/24 05:21:37;;;;;;;9.80;2.55;;;;;;;6.88;100.00;100470.53;4985954;28;20440;-65
2022/11/24 05:24:03;;;;;;;12.65;2.92;;;;;;;6.94;100.00;100475.13;4986127;28;20030;-65
2022/11/24 05:26:28;;;;;;;14.95;3.50;;;;;;;6.90;100.00;100471.16;4985971;28;20039;-65
2022/11/24 05:28:53;;;;;;;10.65;2.70;;;;;;;6.90;100.00;100471.16;4985221;28;20121;-65
2022/11/24 05:31:19;;;;;;;11.38;3.00;;;;;;;6.89;100.00;100478.50;4987257;28;20349;-65
2022/11/24 05:33:44;;;;;;;10.68;3.30;;;;;;;6.90;100.00;100473.91;4985841;28;20030;-65
2022/11/24 05:36:51;;;;;;;10.32;3.55;;;;;;;6.91;100.00;100481.03;4986013;28;20034;-65
2022/11/24 05:38:59;;;;;;;12.65;3.30;;;;;;;6.91;100.00;100486.50;4984859;28;20038;-65
2022/11/24 05:41:24;;;;;;;13.15;3.03;;;;;;;6.92;100.00;100489.00;4986735;28;20114;-64
2022/11/24 05:43:49;;;;;;;9.13;2.90;;;;;;;6.93;100.00;100493.41;4986032;28;20026;-65
2022/11/24 05:46:15;;;;;;;12.93;3.35;;;;;;;6.93;100.00;100489.81;4985930;28;20041;-65
2022/11/24 05:48:40;;;;;;;15.35;3.33;;;;;;;6.96;100.00;100494.88;4986126;28;20037;-65
2022/11/24 05:51:05;;;;;;;11.70;3.40;;;;;;;6.97;100.00;100496.53;4984078;28;20513;-65
2022/11/24 05:53:31;;;;;;;9.05;2.75;;;;;;;6.96;100.00;100505.78;4984029;28;20221;-64
2022/11/24 05:55:56;;;;;;;11.05;3.25;;;;;;;6.95;100.00;100510.41;4982215;28;20029;-65
2022/11/24 05:58:21;;;;;;;12.43;2.95;;;;;;;6.97;100.00;100512.91;4983268;28;20333;-65
2022/11/24 06:00:47;;;;;;;9.88;2.70;;;;;;;6.98;100.00;100523.63;4984449;28;20036;-65
2022/11/24 06:03:12;;;;;;;13.48;3.00;;;;;;;6.97;100.00;100518.38;4984516;28;20393;-65
2022/11/24 06:05:38;;;;;;;11.82;2.88;;;;;;;6.98;100.00;100526.34;4983727;28;20026;-65
2022/11/24 06:08:03;;;;;;;12.02;3.05;;;;;;;6.97;100.00;100530.13;4982007;28;20037;-64
2022/11/24 06:10:29;;;;;;;11.52;3.33;;;;;;;6.98;100.00;100531.81;4989483;28;20511;-65
2022/11/24 06:12:55;;;;;;;9.82;2.70;;;;;;;7.03;100.00;100542.09;5000668;28;20088;-65
2022/11/24 06:15:20;;;;;;;14.05;3.10;;;;;;;7.01;100.00;100536.00;5002132;28;20026;-65
2022/11/24 06:17:55;;;;;;;14.38;2.90;;;;;;;7.07;100.00;100535.16;5005264;28;20026;-65
2022/11/24 06:20:21;;;;;;;14.05;3.13;;;;;;;7.04;100.00;100546.50;5005260;28;20034;-65
2022/11/24 06:22:47;;;;;;;16.55;3.60;;;;;;;7.05;100.00;100548.19;5005234;28;20471;-65
2022/11/24 06:25:12;;;;;;;11.20;3.08;;;;;;;7.10;100.00;100559.31;5004105;28;20045;-65
2022/11/24 06:27:38;;;;;;;11.38;3.60;;;;;;;7.10;100.00;100566.66;5005418;28;20109;-64
2022/11/24 06:30:03;;;;;;;12.82;2.88;;;;;;;7.12;100.00;100562.66;5005251;28;20038;-65
2022/11/24 06:32:29;;;;;;;10.95;3.25;;;;;;;7.14;100.00;100571.44;5020050;28;20571;-65
2022/11/24 06:34:54;;;;;;;12.13;3.25;;;;;;;7.15;100.00;100580.50;5002951;28;20026;-65
2022/11/24 06:37:20;;;;;;;11.38;2.72;;;;;;;7.17;100.00;100576.50;5000238;28;20109;-65
2022/11/24 06:39:45;;;;;;;14.90;3.38;;;;;;;7.15;100.00;100588.72;5002461;28;20388;-65
2022/11/24 06:42:11;;;;;;;13.27;3.63;;;;;;;7.13;100.00;100594.38;5003908;28;20037;-65
2022/11/24 06:44:36;;;;;;;12.98;3.17;;;;;;;7.12;100.00;100589.13;5005930;28;20030;-64
2022/11/24 06:47:01;;;;;;;9.63;3.30;;;;;;;7.08;100.00;100596.91;5007782;28;20120;-65
2022/11/24 06:49:26;;;;;;;10.93;2.90;;;;;;;7.05;100.00;100602.81;5007211;28;20057;-65
2022/11/24 06:51:53;;;;;;;11.35;3.45;;;;;;;7.05;100.00;100605.53;5003861;28;20049;-65
2022/11/24 06:54:20;;;;;;;10.77;3.40;;;;;;;7.14;100.00;100615.16;5005550;28;20030;-65
2022/11/24 06:56:45;;;;;;;14.75;3.45;;;;;;;7.06;100.00;100620.03;5005050;28;20069;-65
2022/11/24 06:59:17;;;;;;;13.27;3.42;;;;;;;7.03;100.00;100643.97;5003382;28;20134;-65
2022/11/24 07:01:42;;;;;;;10.30;2.97;;;;;;;7.02;100.00;100641.44;5006797;28;20475;-65
2022/11/24 07:04:09;;;;;;;9.43;3.83;;;;;;;6.97;100.00;100647.53;5005654;28;20057;-65
2022/11/24 07:06:34;;;;;;;11.32;3.00;;;;;;;6.93;100.00;100649.00;5004814;28;20512;-65
2022/11/24 07:08:59;;;;;;;11.38;3.45;;;;;;;6.90;100.00;100656.81;5007507;28;20038;-65
2022/11/24 07:11:25;;;;;;;12.65;2.92;;;;;;;6.90;100.00;100657.66;5009239;28;20396;-64
2022/11/24 07:13:50;;;;;;;10.35;2.90;;;;;;;6.83;100.00;100664.97;5007852;28;20033;-65
2022/11/24 07:16:21;;;;;;;11.55;3.08;;;;;;;6.78;100.00;100664.78;5019300;28;20512;-65
2022/11/24 07:18:47;;;;;;;9.80;2.67;;;;;;;6.76;100.00;100678.63;5008457;28;20030;-65
2022/11/24 07:21:13;;;;;;;9.00;2.63;;;;;;;6.76;100.00;100686.81;5007606;28;20045;-65
2022/11/24 07:23:39;;;;;;;9.68;2.55;;;;;;;6.80;100.00;100692.72;5008445;28;20038;-65
2022/11/24 07:26:05;;;;;;;7.88;2.55;;;;;;;6.80;100.00;100706.38;5008863;28;20091;-65
2022/11/24 07:28:31;;;;;;;9.73;2.92;;;;;;;6.80;100.00;100705.53;5007818;28;20114;-65
2022/11/24 07:30:57;;;;;;;11.43;3.03;;;;;;;6.79;100.00;100703.81;5008652;28;20392;-65
2022/11/24 07:33:24;;;;;;;10.38;2.90;;;;;;;6.82;100.00;100706.16;5002958;28;20049;-65
2022/11/24 07:35:51;;;;;;;8.05;2.50;;;;;;;6.83;100.00;100716.00;5006354;28;20180;-65
2022/11/24 07:38:16;;;;;;;9.73;2.95;;;;;;;6.83;100.00;100718.75;5002296;28;20447;-65
2022/11/24 07:40:41;;;;;;;10.65;2.65;;;;;;;6.84;100.00;100723.13;5019400;28;20149;-65
2022/11/24 07:43:07;;;;;;;8.85;2.60;;;;;;;6.84;100.00;100726.72;5005131;28;20365;-65
2022/11/24 07:45:32;;;;;;;11.45;2.88;;;;;;;6.87;100.00;100736.38;5006727;28;20088;-65
2022/11/24 07:47:57;;;;;;;11.68;3.03;;;;;;;6.86;100.00;100729.25;5006345;28;20587;-65
2022/11/24 07:50:23;;;;;;;10.82;2.65;;;;;;;6.90;100.00;100741.44;5004253;28;20030;-65
2022/11/24 07:52:48;;;;;;;8.63;2.63;;;;;;;6.89;100.00;100739.72;5005203;28;20029;-65
2022/11/24 07:55:14;;;;;;;13.55;3.47;;;;;;;6.88;100.00;100738.06;5005445;28;20255;-65
2022/11/24 07:57:40;;;;;;;9.13;2.70;;;;;;;6.81;100.00;100737.22;5005616;28;20472;-64
2022/11/24 08:00:05;;;;;;;13.23;2.67;;;;;;;6.78;100.00;100748.56;5005708;28;20076;-65
2022/11/24 08:02:31;;;;;;;13.18;2.83;;;;;;;6.72;100.00;100745.59;5005739;28;20088;-65
2022/11/24 08:04:56;;;;;;;10.52;2.58;;;;;;;6.81;100.00;100761.78;5005696;28;20033;-65
2022/11/24 08:07:21;;;;;;;11.25;2.60;;;;;;;6.92;100.00;100761.16;5005250;28;20025;-65
2022/11/24 08:09:49;;;;;;;10.18;2.70;;;;;;;7.25;100.00;100761.19;5006026;28;20028;-65
2022/11/24 08:12:16;;;;;;;13.60;3.50;;;;;;;7.58;100.00;100766.59;5004648;28;20129;-65
2022/11/24 08:14:41;;;;;;;10.60;2.58;;;;;;;7.87;100.00;100761.69;5005800;28;20029;-65
2022/11/24 08:17:06;;;;;;;9.95;2.70;;;;;;;8.23;100.00;100764.72;5005587;28;20079;-65
2022/11/24 08:19:33;;;;;;;13.98;2.95;;;;;;;8.71;100.00;100772.47;4993332;28;20582;-65
2022/11/24 08:21:58;;;;;;;8.57;2.50;;;;;;;9.19;98.88;100784.78;4995000;28;20044;-65
2022/11/24 08:24:23;;;;;;;9.45;2.75;;;;;;;9.45;96.27;100786.47;4988004;28;20038;-65
2022/11/24 08:26:48;;;;;;;8.65;2.20;;;;;;;9.53;95.85;100787.03;4990467;28;22962;-65
2022/11/24 08:29:14;;;;;;;11.38;2.65;;;;;;;9.58;94.48;100780.88;4993254;28;20045;-65
2022/11/24 08:31:39;;;;;;;9.38;2.60;;;;;;;9.67;92.80;100793.19;4990753;28;20080;-65
2022/11/24 08:34:05;;;;;;;10.68;2.60;;;;;;;9.75;92.93;100792.06;4992407;28;20810;-66
2022/11/24 08:36:31;;;;;;;9.13;2.50;;;;;;;9.62;92.39;100804.00;4992159;28;20126;-65
2022/11/24 08:38:58;;;;;;;11.10;2.40;;;;;;;9.53;92.89;100811.69;4987242;28;20041;-65
2022/11/24 08:41:25;;;;;;;8.68;2.45;;;;;;;9.44;92.43;100809.47;4987308;28;20084;-66
2022/11/24 08:43:50;;;;;;;12.15;3.22;;;;;;;9.27;93.81;100823.69;4987900;28;20042;-66
2022/11/24 08:46:17;;;;;;;10.25;2.33;;;;;;;9.15;94.32;100811.78;4993602;28;20037;-66
2022/11/24 08:48:46;;;;;;;9.43;2.30;;;;;;;9.18;95.07;100825.06;4990083;28;20109;-65
2022/11/24 08:51:13;;;;;;;7.97;3.33;;;;;;;9.26;94.27;100827.50;4991329;28;20036;-66
2022/11/24 08:53:40;;;;;;;9.82;2.42;;;;;;;9.37;92.88;100834.16;4994776;28;20034;-66
2022/11/24 08:56:06;;;;;;;11.48;3.05;;;;;;;9.63;92.90;100838.63;4992847;28;20117;-66
2022/11/24 08:58:32;;;;;;;11.35;2.60;;;;;;;10.02;90.27;100837.34;4990653;28;20054;-65
2022/11/24 09:01:24;;;;;;;10.50;2.90;;;;;;;10.12;89.71;100839.56;5000726;28;20053;-66
2022/11/24 09:03:50;;;;;;;11.27;2.78;;;;;;;9.94;90.04;100851.38;4989932;28;20041;-66
2022/11/24 09:06:21;;;;;;;12.43;3.10;;;;;;;10.06;89.61;100851.47;4987912;28;20038;-65
2022/11/24 09:08:47;;;;;;;12.10;2.55;;;;;;;10.34;87.83;100848.22;4996162;28;20026;-65
2022/11/24 09:11:14;;;;;;;13.57;3.00;;;;;;;10.54;87.06;100862.56;4997457;28;20225;-66
2022/11/24 09:13:40;;;;;;;15.57;3.30;;;;;;;10.49;85.36;100859.69;4992653;28;20029;-66
2022/11/24 09:16:11;;;;;;;12.05;2.97;;;;;;;10.44;86.68;100861.41;4988747;28;20038;-65
2022/11/24 09:18:37;;;;;;;14.60;3.17;;;;;;;10.30;85.95;100868.97;4990339;28;20085;-66
2022/11/24 09:21:12;;;;;;;12.00;2.50;;;;;;;10.08;86.71;100872.13;4989733;28;20038;-66
2022/11/24 09:23:38;;;;;;;10.48;2.42;;;;;;;10.02;88.37;100872.19;4991080;28;20033;-66
2022/11/24 09:26:06;;;;;;;12.10;3.22;;;;;;;10.29;86.56;100870.91;4989792;28;20133;-66
2022/11/24 09:28:31;;;;;;;9.80;2.33;;;;;;;10.39;85.43;100881.31;4990383;28;20037;-65
2022/11/24 09:31:04;;;;;;;11.85;2.33;;;;;;;10.63;84.78;100879.56;4994680;28;20050;-66
2022/11/24 09:33:30;;;;;;;10.43;2.97;;;;;;;11.00;84.42;100876.75;4989446;28;20046;-65
2022/11/24 09:35:56;;;;;;;9.70;2.80;;;;;;;11.29;82.10;100883.31;4989424;28;20033;-66
2022/11/24 09:38:21;;;;;;;11.13;2.60;;;;;;;11.40;80.69;100886.13;4987380;28;20022;-66
2022/11/24 09:40:47;;;;;;;14.48;2.53;;;;;;;11.51;80.34;100878.13;4992667;28;20025;-65
2022/11/24 09:43:58;;;;;;;6.75;2.53;;;;;;;12.37;79.25;100880.22;4987977;28;20037;-65
2022/11/24 09:46:51;;;;;;;11.55;2.67;;;;;;;12.88;76.32;100891.47;4976820;28;20096;-66
2022/11/24 09:49:26;;;;;;;12.05;2.72;;;;;;;13.21;73.44;100904.50;4989468;28;20018;-65
2022/11/24 09:51:55;;;;;;;9.00;2.33;;;;;;;13.68;69.92;100902.34;4987457;28;20117;-66
2022/11/24 09:54:28;;;;;;;11.90;3.47;;;;;;;14.46;69.15;100907.97;4995955;28;20022;-66
2022/11/24 09:56:56;;;;;;;9.73;2.30;;;;;;;15.22;65.01;100908.13;4994884;28;20033;-66
2022/11/24 09:59:24;;;;;;;10.35;2.95;;;;;;;15.61;62.86;100902.41;4995899;28;20034;-66
2022/11/24 10:01:51;;;;;;;15.23;3.00;;;;;;;16.31;60.81;100921.56;5000073;28;20048;-66
2022/11/24 10:04:21;;;;;;;10.32;2.65;;;;;;;16.63;59.32;100928.16;4987562;28;20087;-66
2022/11/24 10:07:05;;;;;;;9.73;3.00;;;;;;;16.87;57.80;100937.72;4984025;28;20025;-67
2022/11/24 10:09:44;;;;;;;10.45;2.65;;;;;;;17.30;58.25;100930.94;4997605;28;20048;-66
2022/11/24 10:12:26;;;;;;;12.75;2.97;;;;;;;16.80;58.04;100932.41;5000249;28;20774;-66
2022/11/24 10:15:26;;;;;;;13.23;3.00;;;;;;;16.70;58.42;100937.06;4984945;28;20044;-66
2022/11/24 10:18:10;;;;;;;12.40;2.97;;;;;;;16.89;58.50;100951.31;4993637;28;20065;-66
2022/11/24 10:21:07;;;;;;;13.07;3.20;;;;;;;17.24;58.20;100945.09;4997848;28;20124;-67
2022/11/24 10:23:58;;;;;;;15.95;3.28;;;;;;;17.63;56.92;100953.78;5000010;28;20926;-67
2022/11/24 10:26:35;;;;;;;10.88;3.05;;;;;;;17.60;56.06;100955.16;4997642;28;20116;-67
2022/11/24 10:29:09;;;;;;;15.20;3.08;;;;;;;17.31;54.69;100952.03;5011708;28;20524;-66
2022/11/24 10:31:39;;;;;;;13.60;2.95;;;;;;;16.79;56.06;100954.88;4985860;28;20022;-66
2022/11/24 10:34:16;;;;;;;13.73;2.88;;;;;;;16.86;57.45;100961.00;4994975;28;20056;-66
2022/11/24 10:37:11;;;;;;;15.02;3.72;;;;;;;17.36;57.50;100960.38;4997461;28;20076;-66
2022/11/24 10:39:49;;;;;;;12.80;2.97;;;;;;;17.24;55.65;100967.28;4995240;28;20136;-66
2022/11/24 10:42:25;;;;;;;11.57;2.97;;;;;;;17.12;54.85;100967.50;4991905;28;20062;-66
2022/11/24 10:45:10;;;;;;;12.80;2.85;;;;;;;17.48;54.84;100970.41;4994033;28;20033;-66
2022/11/24 10:47:36;;;;;;;11.98;3.22;;;;;;;17.29;54.66;100972.88;4996896;28;20081;-66
2022/11/24 10:50:16;;;;;;;12.00;3.80;;;;;;;17.64;53.92;100967.41;4999564;28;20049;-66
2022/11/24 10:52:47;;;;;;;10.60;3.28;;;;;;;18.28;52.01;100952.16;4991501;28;20048;-67
2022/11/24 10:55:12;;;;;;;11.38;3.00;;;;;;;18.38;51.79;100956.88;4992971;28;20053;-67
2022/11/24 10:57:39;;;;;;;10.55;2.78;;;;;;;18.66;50.59;100972.13;4993254;28;20040;-66
2022/11/24 11:00:17;;;;;;;12.95;3.28;;;;;;;19.19;52.00;100959.44;5009526;28;20041;-66
2022/11/24 11:02:42;;;;;;;12.35;3.92;;;;;;;19.38;48.44;100964.38;4988131;28;20125;-66
2022/11/24 11:05:31;;;;;;;13.10;3.22;;;;;;;19.61;50.74;100969.25;4999860;28;20129;-66
2022/11/24 11:08:09;;;;;;;10.98;3.03;;;;;;;19.23;49.67;100972.81;4994436;28;20056;-66
2022/11/24 11:10:35;;;;;;;11.73;2.90;;;;;;;18.96;48.96;100967.59;4993329;28;20408;-66
2022/11/24 11:13:20;;;;;;;10.45;2.95;;;;;;;18.86;50.69;100962.94;4988282;28;20038;-65
2022/11/24 11:15:45;;;;;;;13.13;3.42;;;;;;;18.64;49.34;100955.69;4992758;28;20542;-66
2022/11/24 11:18:15;;;;;;;12.40;3.28;;;;;;;19.14;49.09;100965.03;4996613;28;20076;-66
2022/11/24 11:20:49;;;;;;;14.88;3.53;;;;;;;19.44;49.13;100958.47;4986976;28;20049;-66
2022/11/24 11:23:21;;;;;;;11.10;2.75;;;;;;;19.68;47.59;100953.06;4987420;28;20404;-66